Time;durP1;ratioP1;P1;durP2;ratioP2;P2;SDS_P1;SDS_P2;PMS_P1;PMS_P2;Temp;Humidity;BMP_temperature;BMP_pressure;BME280_temperature;BME280_humidity;BME280_pressure;Samples;Min_cycle;Max_cycle;Signal;HPM_P1;HPM_P2
2024/01/08 00:01:28;;;;;;;4.03;2.80;;;-0.80;99.90;;;;;;5067126;28;20031;-76
2024/01/08 00:03:56;;;;;;;5.57;2.58;;;-0.80;99.90;;;;;;5084690;28;20020;-75
2024/01/08 00:06:37;;;;;;;4.60;2.65;;;-0.80;99.90;;;;;;5084725;28;20035;-75
2024/01/08 00:09:12;;;;;;;5.05;3.10;;;-0.80;99.90;;;;;;5084665;28;20056;-75
2024/01/08 00:12:37;;;;;;;5.18;2.92;;;-0.80;99.90;;;;;;5084009;28;20033;-75
2024/01/08 00:15:15;;;;;;;4.70;3.00;;;-0.80;99.90;;;;;;4982316;28;20126;-75
2024/01/08 00:17:41;;;;;;;4.10;2.60;;;-0.80;99.90;;;;;;4983310;28;20043;-74
2024/01/08 00:20:10;;;;;;;5.82;3.13;;;-0.80;99.90;;;;;;4983516;28;20058;-75
2024/01/08 00:22:38;;;;;;;4.75;2.80;;;-0.80;99.90;;;;;;4983120;28;20230;-74
2024/01/08 00:25:27;;;;;;;4.35;2.78;;;-0.80;99.90;;;;;;4943622;28;20047;-74
2024/01/08 00:28:05;;;;;;;4.63;2.67;;;-0.70;99.90;;;;;;4958405;29;20050;-74
2024/01/08 00:30:33;;;;;;;4.20;2.60;;;-0.70;99.90;;;;;;4978268;28;20030;-75
2024/01/08 00:33:08;;;;;;;4.20;2.60;;;-0.70;99.90;;;;;;4983286;28;20360;-74
2024/01/08 00:35:40;;;;;;;4.22;2.65;;;-0.70;99.90;;;;;;4982819;28;20046;-75
2024/01/08 00:38:16;;;;;;;3.67;2.28;;;-0.70;99.90;;;;;;4962893;28;20097;-74
2024/01/08 00:40:50;;;;;;;5.07;2.75;;;-0.80;99.90;;;;;;4982920;28;20034;-75
2024/01/08 00:43:24;;;;;;;5.22;2.83;;;-0.80;99.90;;;;;;4983136;28;20345;-75
2024/01/08 00:45:56;;;;;;;4.65;2.97;;;-0.70;99.90;;;;;;5029291;28;20116;-74
2024/01/08 00:48:21;;;;;;;4.20;2.50;;;-0.80;99.90;;;;;;5059270;28;20056;-75
2024/01/08 00:50:55;;;;;;;4.65;2.88;;;-0.80;99.90;;;;;;5042826;28;20124;-75
2024/01/08 00:53:29;;;;;;;4.78;2.78;;;-0.80;99.90;;;;;;5043625;28;20045;-75
2024/01/08 00:55:55;;;;;;;4.32;2.92;;;-0.80;99.90;;;;;;5034072;28;20051;-76
2024/01/08 00:58:28;;;;;;;4.43;2.88;;;-0.80;99.90;;;;;;5063527;28;20089;-75
2024/01/08 01:01:01;;;;;;;6.50;3.42;;;-0.80;99.90;;;;;;5044335;28;20071;-75
2024/01/08 01:03:36;;;;;;;5.00;2.58;;;-0.80;99.90;;;;;;5063486;28;20056;-76
2024/01/08 01:06:10;;;;;;;4.25;2.80;;;-0.80;99.90;;;;;;5063376;28;20079;-76
2024/01/08 01:08:36;;;;;;;4.35;2.95;;;-0.70;99.90;;;;;;5063239;28;20072;-75
2024/01/08 01:11:03;;;;;;;4.25;2.88;;;-0.70;99.90;;;;;;5044800;28;20067;-75
2024/01/08 01:13:29;;;;;;;5.20;3.17;;;-0.80;99.90;;;;;;5052132;28;20053;-76
2024/01/08 01:16:01;;;;;;;4.80;3.08;;;-0.80;99.90;;;;;;5043260;28;20025;-76
2024/01/08 01:18:33;;;;;;;4.28;2.67;;;-0.80;99.90;;;;;;5042234;28;20044;-75
2024/01/08 01:21:02;;;;;;;5.10;3.15;;;-0.70;99.90;;;;;;5042415;28;20029;-76
2024/01/08 01:23:28;;;;;;;5.07;2.90;;;-0.70;99.90;;;;;;5024981;28;20344;-75
2024/01/08 01:26:03;;;;;;;5.93;3.25;;;-0.70;99.90;;;;;;5042947;28;20018;-75
2024/01/08 01:28:28;;;;;;;6.10;3.20;;;-0.80;99.90;;;;;;5042692;28;20036;-75
2024/01/08 01:31:03;;;;;;;6.20;3.05;;;-0.70;99.90;;;;;;5043301;28;20029;-75
2024/01/08 01:33:29;;;;;;;4.72;3.33;;;-0.70;99.90;;;;;;5042457;28;20040;-75
2024/01/08 01:36:04;;;;;;;4.95;3.25;;;-0.70;99.90;;;;;;5025153;28;20078;-75
2024/01/08 01:38:32;;;;;;;4.63;3.03;;;-0.70;99.90;;;;;;5024707;28;20032;-74
2024/01/08 01:40:58;;;;;;;4.93;3.28;;;-0.70;99.80;;;;;;5042617;28;20040;-75
2024/01/08 01:43:28;;;;;;;5.22;3.03;;;-0.70;99.50;;;;;;5042698;28;20041;-74
2024/01/08 01:46:06;;;;;;;5.25;3.20;;;-0.70;99.20;;;;;;5029752;28;20335;-74
2024/01/08 01:48:32;;;;;;;4.70;3.10;;;-0.70;99.90;;;;;;5044373;28;20044;-75
2024/01/08 01:51:06;;;;;;;5.55;3.30;;;-0.70;99.90;;;;;;5042261;28;20067;-75
2024/01/08 01:53:38;;;;;;;5.60;3.20;;;-0.70;99.90;;;;;;5062089;28;20079;-74
2024/01/08 01:56:07;;;;;;;5.43;3.33;;;-0.60;99.90;;;;;;5062427;28;20075;-75
2024/01/08 01:58:39;;;;;;;4.25;2.88;;;-0.60;99.90;;;;;;5061840;28;20214;-75
2024/01/08 02:01:17;;;;;;;4.70;2.95;;;-0.60;99.60;;;;;;5062154;28;20104;-76
2024/01/08 02:03:45;;;;;;;5.10;2.95;;;-0.60;99.20;;;;;;5025549;28;20086;-74
2024/01/08 02:06:24;;;;;;;5.25;3.42;;;-0.70;98.90;;;;;;5059019;28;20029;-76
2024/01/08 02:08:52;;;;;;;5.72;3.50;;;-0.70;99.10;;;;;;5061794;28;20036;-75
2024/01/08 02:11:25;;;;;;;5.35;3.22;;;-0.60;98.90;;;;;;5039284;28;20049;-76
2024/01/08 02:13:50;;;;;;;5.63;3.50;;;-0.70;99.50;;;;;;5063551;28;20037;-75
2024/01/08 02:16:20;;;;;;;7.70;3.75;;;-0.70;99.70;;;;;;5062477;28;20051;-75
2024/01/08 02:18:46;;;;;;;4.95;3.50;;;-0.70;99.90;;;;;;5027502;28;20021;-75
2024/01/08 02:21:12;;;;;;;4.18;2.97;;;-0.60;99.90;;;;;;5061882;28;20028;-75
2024/01/08 02:23:38;;;;;;;5.10;3.47;;;-0.60;99.40;;;;;;5031012;28;20032;-75
2024/01/08 02:26:17;;;;;;;5.35;3.42;;;-0.60;99.30;;;;;;5024259;28;20033;-76
2024/01/08 02:28:45;;;;;;;5.32;3.28;;;-0.60;99.50;;;;;;5041306;28;20067;-75
2024/01/08 02:31:14;;;;;;;7.05;3.38;;;-0.60;99.10;;;;;;5061572;28;20059;-75
2024/01/08 02:33:44;;;;;;;5.45;3.58;;;-0.60;99.20;;;;;;5061396;28;20041;-76
2024/01/08 02:36:19;;;;;;;6.13;3.70;;;-0.50;99.90;;;;;;5062213;28;20226;-75
2024/01/08 02:38:45;;;;;;;6.47;3.80;;;-0.50;99.50;;;;;;5065898;28;20044;-74
2024/01/08 02:41:21;;;;;;;6.55;3.50;;;-0.50;98.50;;;;;;5042466;28;20350;-75
2024/01/08 02:43:50;;;;;;;5.25;3.70;;;-0.50;98.30;;;;;;5064352;28;20242;-75
2024/01/08 02:46:15;;;;;;;5.03;3.40;;;-0.50;99.00;;;;;;5065839;28;20052;-74
2024/01/08 02:48:44;;;;;;;5.80;3.42;;;-0.50;99.00;;;;;;5065291;28;20089;-74
2024/01/08 02:51:20;;;;;;;5.15;3.40;;;-0.50;99.00;;;;;;5066028;28;20040;-74
2024/01/08 02:54:03;;;;;;;6.97;3.45;;;-0.50;98.60;;;;;;5065544;28;20056;-74
2024/01/08 02:56:41;;;;;;;5.53;3.90;;;-0.50;98.70;;;;;;5059177;28;20160;-75
2024/01/08 02:59:07;;;;;;;6.13;3.90;;;-0.60;98.60;;;;;;5045820;28;20173;-75
2024/01/08 03:01:54;;;;;;;5.63;3.80;;;-0.60;99.40;;;;;;5045255;28;20033;-75
2024/01/08 03:04:19;;;;;;;5.10;3.43;;;-0.50;98.30;;;;;;5045717;28;20302;-75
2024/01/08 03:07:01;;;;;;;6.22;3.92;;;-0.50;98.80;;;;;;5045465;28;20068;-74
2024/01/08 03:09:39;;;;;;;6.05;3.58;;;-0.50;98.60;;;;;;5045723;28;20104;-76
2024/01/08 03:12:31;;;;;;;5.32;3.45;;;-0.60;98.70;;;;;;5045632;28;20220;-76
2024/01/08 03:17:47;;;;;;;4.85;2.95;;;-0.50;98.40;;;;;;5034755;28;20154;-75
2024/01/08 03:20:22;;;;;;;5.95;3.58;;;-0.50;98.30;;;;;;5047170;28;20033;-74
2024/01/08 03:22:51;;;;;;;6.30;3.60;;;-0.50;98.40;;;;;;5047355;28;20072;-75
2024/01/08 03:25:29;;;;;;;5.63;3.25;;;-0.60;98.90;;;;;;5047577;28;20320;-74
2024/01/08 03:27:55;;;;;;;6.57;3.65;;;-0.50;98.50;;;;;;5065439;28;20323;-74
2024/01/08 03:30:29;;;;;;;5.78;3.60;;;-0.50;98.90;;;;;;5063109;28;20135;-74
2024/01/08 03:33:21;;;;;;;5.30;3.50;;;-0.50;98.90;;;;;;5046983;28;20165;-77
2024/01/08 03:35:46;;;;;;;5.25;3.28;;;-0.50;98.40;;;;;;5026798;28;20057;-74
2024/01/08 03:41:19;;;;;;;5.22;3.45;;;-0.50;98.50;;;;;;5044155;28;20049;-75
2024/01/08 03:43:50;;;;;;;5.63;3.63;;;-0.40;98.60;;;;;;5044518;28;20037;-75
2024/01/08 03:46:37;;;;;;;5.55;3.58;;;-0.50;98.80;;;;;;5043254;28;20037;-74
2024/01/08 03:49:14;;;;;;;4.88;3.05;;;-0.40;98.20;;;;;;5046852;28;20038;-74
2024/01/08 03:51:43;;;;;;;6.05;3.25;;;-0.40;98.80;;;;;;5044591;28;20242;-75
2024/01/08 03:54:11;;;;;;;5.63;3.45;;;-0.40;98.10;;;;;;5026753;28;20041;-75
2024/01/08 03:56:40;;;;;;;5.30;3.55;;;-0.40;97.80;;;;;;5044233;28;20028;-74
2024/01/08 03:59:15;;;;;;;6.18;3.17;;;-0.40;98.90;;;;;;5044799;28;20029;-75
2024/01/08 04:01:49;;;;;;;5.30;3.47;;;-0.50;97.90;;;;;;5043192;28;20273;-74
2024/01/08 04:04:18;;;;;;;5.18;3.53;;;-0.40;98.60;;;;;;5045469;28;20049;-75
2024/01/08 04:06:53;;;;;;;4.75;3.38;;;-0.40;99.50;;;;;;5063495;28;20047;-75
2024/01/08 04:09:30;;;;;;;4.97;3.30;;;-0.40;99.20;;;;;;5064667;28;20036;-74
2024/01/08 04:12:05;;;;;;;4.47;3.10;;;-0.40;99.00;;;;;;5064372;28;20043;-74
2024/01/08 04:14:31;;;;;;;5.53;2.80;;;-0.40;97.80;;;;;;5063760;28;20041;-73
2024/01/08 04:17:00;;;;;;;5.80;3.30;;;-0.50;97.30;;;;;;5064570;28;20033;-75
2024/01/08 04:19:40;;;;;;;4.57;2.95;;;-0.50;97.80;;;;;;5064328;28;20012;-74
2024/01/08 04:22:07;;;;;;;6.18;3.47;;;-0.50;98.50;;;;;;5044320;28;20055;-74
2024/01/08 04:24:44;;;;;;;5.60;3.50;;;-0.50;98.60;;;;;;5050558;28;20029;-75
2024/01/08 04:27:13;;;;;;;4.63;3.50;;;-0.40;98.60;;;;;;5044232;28;20022;-74
2024/01/08 04:29:39;;;;;;;5.00;3.15;;;-0.40;98.30;;;;;;5050397;28;20043;-74
2024/01/08 04:32:13;;;;;;;5.15;3.10;;;-0.50;98.10;;;;;;5064286;28;20029;-75
2024/01/08 04:34:59;;;;;;;4.38;3.03;;;-0.50;97.70;;;;;;5063537;28;20066;-74
2024/01/08 04:37:31;;;;;;;5.07;3.22;;;-0.50;97.40;;;;;;5063830;28;20055;-75
2024/01/08 04:40:10;;;;;;;5.85;3.72;;;-0.50;98.00;;;;;;5061733;28;20036;-74
2024/01/08 04:42:39;;;;;;;5.35;2.97;;;-0.50;97.80;;;;;;5026024;28;20315;-75
2024/01/08 04:45:14;;;;;;;5.60;3.30;;;-0.50;97.20;;;;;;5026545;28;20269;-75
2024/01/08 04:47:47;;;;;;;5.35;3.30;;;-0.50;98.00;;;;;;5043118;28;20366;-74
2024/01/08 04:50:33;;;;;;;5.25;3.28;;;-0.50;98.30;;;;;;5042860;28;20076;-74
2024/01/08 04:52:58;;;;;;;6.43;3.65;;;-0.50;97.80;;;;;;5043574;28;20328;-74
2024/01/08 04:55:30;;;;;;;4.53;2.92;;;-0.60;97.40;;;;;;5043773;28;20033;-75
2024/01/08 04:57:58;;;;;;;5.68;3.50;;;-0.60;97.20;;;;;;5043398;28;20033;-75
2024/01/08 05:00:36;;;;;;;5.65;3.40;;;-0.60;97.10;;;;;;5045190;28;20040;-74
2024/01/08 05:03:14;;;;;;;5.53;3.42;;;-0.70;97.10;;;;;;5043451;28;20029;-73
2024/01/08 05:05:49;;;;;;;5.65;3.58;;;-0.60;97.50;;;;;;5043053;28;20025;-76
2024/01/08 05:08:17;;;;;;;6.43;3.58;;;-0.70;97.30;;;;;;5043425;28;20045;-75
2024/01/08 05:10:49;;;;;;;5.82;3.42;;;-0.70;97.50;;;;;;5025115;28;20258;-74
2024/01/08 05:13:26;;;;;;;6.20;3.75;;;-0.70;97.60;;;;;;5043421;28;20125;-74
2024/01/08 05:16:01;;;;;;;7.43;3.70;;;-0.70;97.50;;;;;;5046671;28;20196;-75
2024/01/08 05:18:30;;;;;;;5.75;3.83;;;-0.70;97.50;;;;;;5042912;28;20060;-74
2024/01/08 05:20:59;;;;;;;5.55;3.80;;;-0.70;97.70;;;;;;5043241;28;20075;-75
2024/01/08 05:23:26;;;;;;;6.75;4.10;;;-0.70;97.70;;;;;;5025672;28;20053;-75
2024/01/08 05:25:58;;;;;;;7.80;3.90;;;-0.70;98.00;;;;;;5042647;28;20082;-74
2024/01/08 05:28:28;;;;;;;6.50;4.20;;;-0.70;98.10;;;;;;5043252;28;20041;-74
2024/01/08 05:31:02;;;;;;;5.20;3.83;;;-0.70;98.20;;;;;;5059907;28;20037;-77
2024/01/08 05:33:28;;;;;;;7.30;3.70;;;-0.70;98.10;;;;;;5060782;28;20037;-74
2024/01/08 05:36:06;;;;;;;6.22;3.95;;;-0.80;98.30;;;;;;5044936;28;20059;-75
2024/01/08 05:38:32;;;;;;;7.68;4.38;;;-0.80;98.00;;;;;;5062339;28;20055;-74
2024/01/08 05:41:20;;;;;;;6.07;4.10;;;-0.70;98.60;;;;;;5045838;28;20132;-73
2024/01/08 05:43:56;;;;;;;6.80;4.00;;;-0.70;98.40;;;;;;5039695;28;20049;-74
2024/01/08 05:46:25;;;;;;;6.47;4.00;;;-0.70;98.50;;;;;;5062688;28;20029;-74
2024/01/08 05:48:50;;;;;;;7.90;4.72;;;-0.70;99.10;;;;;;5049602;28;20053;-76
2024/01/08 05:51:21;;;;;;;6.88;4.30;;;-0.70;98.90;;;;;;5041844;28;20041;-75
2024/01/08 05:53:46;;;;;;;6.03;3.95;;;-0.60;99.00;;;;;;5040990;28;20025;-75
2024/01/08 05:56:18;;;;;;;6.40;3.65;;;-0.60;98.70;;;;;;5042501;28;20096;-76
2024/01/08 05:58:56;;;;;;;6.50;3.55;;;-0.60;97.80;;;;;;5042586;28;20273;-75
2024/01/08 06:01:21;;;;;;;4.45;2.63;;;-0.60;98.50;;;;;;5042738;28;20029;-74
2024/01/08 06:03:50;;;;;;;7.07;3.72;;;-0.60;96.80;;;;;;5042354;28;20626;-78
2024/01/08 06:06:16;;;;;;;5.72;3.70;;;-0.70;96.50;;;;;;5061271;28;20235;-74
2024/01/08 06:08:42;;;;;;;4.20;2.97;;;-0.70;96.90;;;;;;5062542;28;20036;-75
2024/01/08 06:11:08;;;;;;;6.15;3.33;;;-0.70;96.50;;;;;;5062428;28;20041;-76
2024/01/08 06:13:39;;;;;;;5.05;3.30;;;-0.80;95.70;;;;;;5043170;28;20037;-76
2024/01/08 06:16:13;;;;;;;5.28;3.30;;;-0.80;96.80;;;;;;5062287;28;20300;-75
2024/01/08 06:18:41;;;;;;;5.53;3.15;;;-0.80;96.60;;;;;;5044261;28;20096;-76
2024/01/08 06:21:07;;;;;;;6.03;3.85;;;-0.80;96.40;;;;;;5055305;28;20029;-76
2024/01/08 06:23:33;;;;;;;4.35;2.90;;;-0.70;97.50;;;;;;5042297;28;20048;-77
2024/01/08 06:26:01;;;;;;;6.10;3.40;;;-0.70;95.90;;;;;;5041626;28;20080;-75
2024/01/08 06:28:30;;;;;;;6.70;3.70;;;-0.70;96.10;;;;;;5041834;28;20029;-75
2024/01/08 06:30:56;;;;;;;6.35;3.50;;;-0.70;95.80;;;;;;5025455;28;20033;-75
2024/01/08 06:33:22;;;;;;;4.68;3.03;;;-0.70;95.30;;;;;;5028210;28;20104;-74
2024/01/08 06:35:48;;;;;;;4.97;3.13;;;-0.70;95.40;;;;;;5044807;28;20405;-76
2024/01/08 06:38:14;;;;;;;5.95;3.10;;;-0.70;95.40;;;;;;5026287;28;20025;-75
2024/01/08 06:40:40;;;;;;;5.10;3.22;;;-0.80;95.40;;;;;;5061568;28;20028;-75
2024/01/08 06:43:05;;;;;;;5.05;3.35;;;-0.70;95.80;;;;;;5028355;28;20033;-75
2024/01/08 06:45:31;;;;;;;5.63;3.03;;;-0.70;95.80;;;;;;5061669;28;20032;-75
2024/01/08 06:47:57;;;;;;;4.18;2.72;;;-0.70;95.70;;;;;;5062880;28;20112;-75
2024/01/08 06:50:23;;;;;;;4.50;3.03;;;-0.60;95.40;;;;;;5061028;28;20029;-75
2024/01/08 06:52:48;;;;;;;5.25;3.05;;;-0.60;95.20;;;;;;5045391;28;20041;-75
2024/01/08 06:55:14;;;;;;;6.30;3.53;;;-0.60;95.50;;;;;;5045127;28;20080;-75
2024/01/08 06:57:40;;;;;;;5.88;3.30;;;-0.70;94.80;;;;;;5043841;28;20056;-76
2024/01/08 07:00:08;;;;;;;5.75;3.92;;;-0.70;95.00;;;;;;5062055;28;20029;-74
2024/01/08 07:02:33;;;;;;;5.30;3.47;;;-0.70;95.10;;;;;;5061778;28;20066;-75
2024/01/08 07:04:59;;;;;;;6.55;3.70;;;-0.70;95.60;;;;;;5061824;28;20355;-74
2024/01/08 07:07:26;;;;;;;7.57;3.50;;;-0.80;95.60;;;;;;5040728;28;20071;-76
2024/01/08 07:09:53;;;;;;;7.78;3.63;;;-0.70;95.50;;;;;;5041526;28;20370;-76
2024/01/08 07:12:18;;;;;;;6.15;3.33;;;-0.70;95.30;;;;;;5045795;28;20093;-75
2024/01/08 07:14:46;;;;;;;7.07;3.10;;;-0.80;94.50;;;;;;5039817;28;20105;-74
2024/01/08 07:17:12;;;;;;;7.22;3.60;;;-0.80;94.70;;;;;;5040604;28;20014;-76
2024/01/08 07:19:38;;;;;;;5.72;3.33;;;-0.80;95.80;;;;;;5024676;28;20029;-76
2024/01/08 07:22:04;;;;;;;5.32;3.30;;;-0.70;95.10;;;;;;5024777;28;20080;-77
2024/01/08 07:24:30;;;;;;;6.25;3.28;;;-0.70;94.70;;;;;;5058927;28;20020;-76
2024/01/08 07:26:57;;;;;;;6.38;3.53;;;-0.80;94.60;;;;;;5049302;28;20028;-75
2024/01/08 07:29:22;;;;;;;8.93;3.53;;;-0.80;95.00;;;;;;5044612;28;20048;-75
2024/01/08 07:31:51;;;;;;;7.28;3.40;;;-0.80;94.80;;;;;;5045960;28;20035;-77
2024/01/08 07:34:17;;;;;;;5.00;3.22;;;-0.80;95.00;;;;;;5064713;28;20044;-74
2024/01/08 07:36:43;;;;;;;5.38;3.30;;;-0.70;94.90;;;;;;5046778;28;20278;-75
2024/01/08 07:39:08;;;;;;;6.05;3.35;;;-0.80;95.00;;;;;;5065291;28;20024;-75
2024/01/08 07:41:34;;;;;;;4.95;3.13;;;-0.70;94.80;;;;;;5065007;28;20304;-75
2024/01/08 07:43:59;;;;;;;5.80;3.53;;;-0.70;94.50;;;;;;5065152;28;20033;-75
2024/01/08 07:46:26;;;;;;;5.63;3.13;;;-0.80;94.60;;;;;;5031918;28;20025;-78
2024/01/08 07:48:51;;;;;;;6.05;3.60;;;-0.70;94.20;;;;;;5030353;28;20090;-74
2024/01/08 07:51:23;;;;;;;5.95;3.45;;;-0.80;94.20;;;;;;5065016;28;20056;-77
2024/01/08 07:53:51;;;;;;;4.97;3.15;;;-0.80;94.20;;;;;;5066034;28;20084;-75
2024/01/08 07:56:17;;;;;;;4.57;3.10;;;-0.80;94.80;;;;;;5047166;28;20088;-72
2024/01/08 07:58:42;;;;;;;5.45;3.40;;;-0.70;94.80;;;;;;5050446;28;20036;-78
2024/01/08 08:01:08;;;;;;;5.88;3.40;;;-0.70;95.20;;;;;;5044310;28;20335;-77
2024/01/08 08:03:34;;;;;;;5.72;3.20;;;-0.70;94.40;;;;;;5045429;28;20045;-76
2024/01/08 08:06:00;;;;;;;6.18;3.53;;;-0.60;94.90;;;;;;5053630;28;20324;-77
2024/01/08 08:08:26;;;;;;;7.25;3.25;;;-0.60;95.00;;;;;;5064895;28;20311;-75
2024/01/08 08:10:52;;;;;;;5.25;3.10;;;-0.60;94.70;;;;;;5046341;28;20029;-77
2024/01/08 08:13:18;;;;;;;5.90;3.42;;;-0.60;94.40;;;;;;5064717;28;20092;-75
2024/01/08 08:15:43;;;;;;;4.40;2.95;;;-0.70;94.80;;;;;;5048140;28;20020;-76
2024/01/08 08:18:09;;;;;;;5.80;3.47;;;-0.60;94.50;;;;;;5066588;28;20045;-76
2024/01/08 08:20:45;;;;;;;4.90;3.20;;;-0.60;95.60;;;;;;5046463;28;20100;-76
2024/01/08 08:23:14;;;;;;;5.72;2.97;;;-0.50;95.30;;;;;;5044725;28;20343;-75
2024/01/08 08:25:40;;;;;;;6.45;3.50;;;-0.40;95.10;;;;;;5044069;28;20065;-76
2024/01/08 08:28:06;;;;;;;5.40;3.35;;;-0.40;94.40;;;;;;5044415;28;20312;-77
2024/01/08 08:30:32;;;;;;;6.85;3.45;;;-0.30;94.40;;;;;;5057928;28;20033;-75
2024/01/08 08:32:58;;;;;;;5.32;3.30;;;-0.30;93.50;;;;;;5063998;28;20055;-75
2024/01/08 08:35:25;;;;;;;6.20;3.30;;;-0.30;93.70;;;;;;5028665;28;20017;-75
2024/01/08 08:37:51;;;;;;;5.60;3.35;;;-0.30;94.40;;;;;;5030010;28;20211;-76
2024/01/08 08:40:17;;;;;;;6.07;3.70;;;-0.20;94.90;;;;;;5052381;28;20115;-75
2024/01/08 08:42:43;;;;;;;5.75;3.40;;;-0.20;95.70;;;;;;5009365;28;20029;-76
2024/01/08 08:45:09;;;;;;;6.55;3.58;;;-0.10;94.10;;;;;;5043864;28;20044;-74
2024/01/08 08:47:38;;;;;;;5.20;3.35;;;-0.10;93.60;;;;;;5025425;28;20041;-75
2024/01/08 08:50:05;;;;;;;5.97;3.10;;;-0.20;94.30;;;;;;5044635;28;20088;-76
2024/01/08 08:52:30;;;;;;;5.47;3.13;;;-0.20;94.10;;;;;;5044464;28;20041;-78
2024/01/08 08:54:56;;;;;;;6.95;3.38;;;-0.20;93.50;;;;;;5011482;28;20026;-76
2024/01/08 08:57:22;;;;;;;6.80;3.45;;;-0.30;92.90;;;;;;5033297;28;20044;-76
2024/01/08 08:59:49;;;;;;;5.57;2.90;;;-0.30;93.80;;;;;;5027562;28;20045;-77
2024/01/08 09:02:16;;;;;;;7.65;3.50;;;-0.30;93.40;;;;;;5044181;28;20029;-75
2024/01/08 09:04:41;;;;;;;6.40;3.20;;;-0.30;93.20;;;;;;5027808;28;20036;-75
2024/01/08 09:07:07;;;;;;;5.45;3.10;;;-0.40;93.20;;;;;;5044322;28;20033;-77
2024/01/08 09:09:33;;;;;;;7.20;3.55;;;-0.40;93.80;;;;;;5057714;28;20092;-77
2024/01/08 09:11:59;;;;;;;6.30;3.42;;;-0.30;94.00;;;;;;5047336;28;20105;-74
2024/01/08 09:14:24;;;;;;;6.95;3.80;;;-0.20;93.40;;;;;;5064493;28;20025;-76
2024/01/08 09:16:50;;;;;;;6.97;3.70;;;0.00;95.00;;;;;;5046557;28;20045;-76
2024/01/08 09:19:28;;;;;;;5.63;3.40;;;0.10;93.90;;;;;;5063343;28;20264;-77
2024/01/08 09:21:59;;;;;;;6.85;3.38;;;0.10;93.60;;;;;;5063526;28;20032;-75
2024/01/08 09:24:32;;;;;;;6.43;3.45;;;0.10;93.70;;;;;;5055205;28;20021;-77
2024/01/08 09:26:58;;;;;;;6.55;3.30;;;0.10;93.80;;;;;;5043042;28;20043;-76
2024/01/08 09:29:24;;;;;;;5.75;3.50;;;0.00;93.00;;;;;;5030644;28;20064;-76
2024/01/08 09:31:53;;;;;;;6.45;3.53;;;-0.10;94.40;;;;;;5056553;28;20043;-77
2024/01/08 09:34:22;;;;;;;8.38;3.42;;;0.00;93.90;;;;;;5013274;28;20021;-76
2024/01/08 09:36:56;;;;;;;5.53;3.17;;;-0.10;93.80;;;;;;5011135;28;20410;-76
2024/01/08 09:39:36;;;;;;;6.03;3.25;;;-0.10;93.90;;;;;;5045355;28;20051;-76
2024/01/08 09:42:22;;;;;;;5.15;3.15;;;0.00;94.30;;;;;;5044656;28;20053;-76
2024/01/08 09:44:56;;;;;;;6.65;3.65;;;0.20;94.50;;;;;;5044529;28;20032;-75
2024/01/08 09:47:24;;;;;;;7.85;3.63;;;0.20;93.60;;;;;;5028335;28;20057;-77
2024/01/08 09:49:50;;;;;;;6.15;3.10;;;0.30;93.70;;;;;;5044381;28;20257;-75
2024/01/08 09:52:20;;;;;;;7.32;3.70;;;0.30;94.30;;;;;;5028959;28;20119;-75
2024/01/08 09:54:52;;;;;;;7.80;3.97;;;0.40;93.80;;;;;;5044230;28;20025;-75
2024/01/08 09:57:24;;;;;;;8.82;3.60;;;0.30;94.60;;;;;;5042692;28;20028;-74
2024/01/08 09:59:58;;;;;;;6.05;3.35;;;0.30;93.70;;;;;;5041476;28;20039;-75
2024/01/08 10:02:27;;;;;;;7.30;3.67;;;0.30;94.60;;;;;;5040833;28;20049;-75
2024/01/08 10:05:09;;;;;;;6.18;3.60;;;0.30;92.80;;;;;;5056638;28;20075;-74
2024/01/08 10:07:35;;;;;;;4.90;2.60;;;0.20;92.80;;;;;;5027856;28;20025;-75
2024/01/08 10:10:26;;;;;;;4.57;2.85;;;0.20;92.50;;;;;;5043455;28;20067;-75
2024/01/08 10:12:54;;;;;;;5.90;2.80;;;0.30;93.20;;;;;;5043174;28;20327;-74
2024/01/08 10:15:28;;;;;;;9.88;3.72;;;0.30;93.20;;;;;;5061958;28;20033;-75
2024/01/08 10:18:00;;;;;;;6.07;3.42;;;0.30;92.30;;;;;;5062086;28;20099;-74
2024/01/08 10:20:35;;;;;;;9.45;3.53;;;0.40;93.60;;;;;;5061647;28;20037;-75
2024/01/08 10:23:27;;;;;;;5.28;3.10;;;0.40;92.90;;;;;;5045713;28;20024;-75
2024/01/08 10:25:55;;;;;;;5.38;2.70;;;0.40;93.20;;;;;;5056053;28;20022;-74
2024/01/08 10:28:39;;;;;;;5.00;2.88;;;0.50;91.90;;;;;;5045420;28;20373;-74
2024/01/08 10:31:08;;;;;;;6.15;3.33;;;0.70;92.10;;;;;;5043239;28;20083;-74
2024/01/08 10:33:34;;;;;;;5.22;3.28;;;0.70;91.40;;;;;;5061854;28;20049;-73
2024/01/08 10:36:04;;;;;;;6.82;2.92;;;0.70;91.00;;;;;;5044285;28;20079;-75
2024/01/08 10:38:33;;;;;;;4.32;3.13;;;0.50;90.90;;;;;;5061594;28;20284;-75
2024/01/08 10:41:01;;;;;;;5.32;3.03;;;0.40;91.00;;;;;;5044635;28;20059;-75
2024/01/08 10:43:30;;;;;;;5.72;3.03;;;0.30;91.20;;;;;;5053961;28;20044;-75
2024/01/08 10:46:04;;;;;;;5.72;2.90;;;0.10;91.30;;;;;;5024564;28;20033;-73
2024/01/08 10:48:40;;;;;;;5.38;3.10;;;0.10;91.40;;;;;;5041765;28;20264;-73
2024/01/08 10:51:08;;;;;;;5.35;2.95;;;0.10;91.60;;;;;;5042219;28;20111;-74
2024/01/08 10:53:46;;;;;;;6.97;3.40;;;0.20;91.70;;;;;;5041390;28;20096;-74
2024/01/08 10:56:15;;;;;;;5.65;3.45;;;0.30;92.50;;;;;;5024416;28;20057;-74
2024/01/08 10:59:21;;;;;;;4.57;2.90;;;0.40;91.30;;;;;;5056725;28;20029;-74
2024/01/08 11:01:47;;;;;;;6.60;3.60;;;0.30;91.10;;;;;;5000902;28;20045;-75
2024/01/08 11:04:14;;;;;;;7.85;4.30;;;0.30;92.10;;;;;;5046063;28;20037;-73
2024/01/08 11:06:42;;;;;;;6.55;3.42;;;0.40;92.00;;;;;;5011227;28;20033;-72
2024/01/08 11:09:31;;;;;;;6.28;3.17;;;0.60;93.40;;;;;;5048832;28;20026;-74
2024/01/08 11:11:57;;;;;;;8.98;3.58;;;0.80;92.10;;;;;;5045646;28;20259;-74
2024/01/08 11:14:24;;;;;;;6.30;3.35;;;0.80;91.60;;;;;;5027643;28;20052;-74
2024/01/08 11:16:51;;;;;;;5.93;3.50;;;0.80;91.40;;;;;;5045050;28;20045;-74
2024/01/08 11:19:20;;;;;;;5.97;3.15;;;0.60;91.00;;;;;;5028254;28;20021;-74
2024/01/08 11:21:55;;;;;;;8.40;3.47;;;0.50;91.80;;;;;;5011082;28;20091;-74
2024/01/08 11:24:21;;;;;;;6.20;3.08;;;0.50;93.00;;;;;;5043973;28;20025;-74
2024/01/08 11:26:51;;;;;;;6.47;3.38;;;0.70;92.90;;;;;;5031251;28;20040;-74
2024/01/08 11:29:18;;;;;;;5.88;3.20;;;0.80;92.10;;;;;;5049327;28;20013;-74
2024/01/08 11:32:09;;;;;;;5.57;3.20;;;0.80;91.40;;;;;;5064736;28;20028;-73
2024/01/08 11:34:56;;;;;;;6.40;3.17;;;0.70;91.70;;;;;;5046517;28;20044;-74
2024/01/08 11:37:36;;;;;;;7.63;3.50;;;0.70;91.50;;;;;;5047399;28;20025;-74
2024/01/08 11:40:17;;;;;;;7.10;2.90;;;0.60;91.40;;;;;;5047811;28;20060;-73
2024/01/08 11:42:50;;;;;;;6.22;3.50;;;0.60;90.90;;;;;;5055122;28;20021;-73
2024/01/08 11:45:23;;;;;;;4.80;2.88;;;0.50;91.70;;;;;;5024185;28;20030;-72
2024/01/08 11:47:55;;;;;;;6.20;3.20;;;0.50;91.80;;;;;;5043382;28;20140;-73
2024/01/08 11:50:20;;;;;;;5.65;2.97;;;0.60;91.60;;;;;;5044733;28;20041;-75
2024/01/08 11:52:53;;;;;;;4.88;2.92;;;0.70;91.70;;;;;;5010087;28;20013;-73
2024/01/08 11:55:20;;;;;;;4.55;2.70;;;0.80;91.30;;;;;;5044598;28;20041;-75
2024/01/08 11:58:09;;;;;;;4.60;2.97;;;0.70;91.20;;;;;;5049589;28;20036;-74
2024/01/08 12:00:42;;;;;;;5.53;3.55;;;0.80;91.60;;;;;;5016506;28;20033;-72
2024/01/08 12:03:08;;;;;;;5.50;3.03;;;0.80;90.70;;;;;;5026925;28;20074;-74
2024/01/08 12:05:38;;;;;;;6.63;2.90;;;0.80;90.60;;;;;;5026529;28;20029;-74
2024/01/08 12:08:16;;;;;;;5.15;2.65;;;0.90;91.60;;;;;;5027526;28;20045;-74
2024/01/08 12:10:41;;;;;;;6.78;2.70;;;1.10;91.60;;;;;;5043718;28;20079;-74
2024/01/08 12:13:13;;;;;;;5.93;2.95;;;1.20;91.10;;;;;;5044542;28;20214;-74
2024/01/08 12:15:42;;;;;;;6.20;3.30;;;1.20;90.70;;;;;;5044173;28;20060;-74
2024/01/08 12:18:08;;;;;;;6.63;2.75;;;1.30;90.80;;;;;;5026126;28;20063;-74
2024/01/08 12:20:38;;;;;;;5.43;3.10;;;1.30;90.10;;;;;;5046380;28;20025;-73
2024/01/08 12:23:07;;;;;;;5.60;3.30;;;1.30;91.10;;;;;;5064131;28;20048;-73
2024/01/08 12:25:36;;;;;;;4.18;2.63;;;1.50;91.30;;;;;;5063601;28;20028;-73
2024/01/08 12:28:02;;;;;;;4.80;2.80;;;1.70;90.80;;;;;;5062741;28;20021;-74
2024/01/08 12:30:28;;;;;;;7.70;2.88;;;1.80;90.60;;;;;;5062996;28;20031;-74
2024/01/08 12:32:57;;;;;;;6.13;2.72;;;1.90;91.40;;;;;;5046323;28;20037;-73
2024/01/08 12:35:26;;;;;;;5.35;3.33;;;1.90;89.10;;;;;;5036895;28;20243;-73
2024/01/08 12:37:58;;;;;;;3.75;2.50;;;1.70;87.60;;;;;;5063625;28;20100;-75
2024/01/08 12:40:34;;;;;;;6.72;2.88;;;1.70;90.30;;;;;;5063932;28;20029;-74
2024/01/08 12:43:02;;;;;;;4.38;2.63;;;1.80;89.30;;;;;;5045884;28;20100;-74
2024/01/08 12:45:30;;;;;;;6.43;3.03;;;1.80;88.50;;;;;;5049263;28;20033;-74
2024/01/08 12:47:56;;;;;;;6.30;2.85;;;1.80;88.60;;;;;;5053957;28;20825;-74
2024/01/08 12:50:31;;;;;;;4.22;2.55;;;1.80;88.20;;;;;;5043880;28;20037;-74
2024/01/08 12:53:03;;;;;;;4.93;2.97;;;1.80;87.60;;;;;;5052429;28;20383;-74
2024/01/08 12:55:54;;;;;;;5.47;2.63;;;1.90;90.20;;;;;;5061936;28;20033;-73
2024/01/08 12:58:25;;;;;;;6.13;2.88;;;2.20;89.90;;;;;;4997554;28;20046;-73
2024/01/08 13:00:54;;;;;;;6.90;3.40;;;2.50;89.20;;;;;;5041665;28;20056;-74
2024/01/08 13:03:28;;;;;;;4.63;3.03;;;2.80;86.80;;;;;;5063337;28;20032;-75
2024/01/08 13:06:09;;;;;;;5.95;3.20;;;2.80;85.00;;;;;;5063386;28;20040;-75
2024/01/08 13:08:35;;;;;;;5.13;2.78;;;2.80;85.50;;;;;;5062889;28;20100;-75
2024/01/08 13:11:05;;;;;;;4.72;2.75;;;2.70;86.80;;;;;;5007074;28;20058;-74
2024/01/08 13:13:51;;;;;;;6.00;3.08;;;2.60;87.30;;;;;;5001618;28;20048;-74
2024/01/08 13:16:21;;;;;;;5.43;2.85;;;2.40;86.50;;;;;;4984325;28;20280;-75